sensor_id;sensor_type;location;lat;lon;timestamp;P1;durP1;ratioP1;P2;durP2;ratioP2
30543;SDS011;43388;46.308;4.600;2023-05-10T00:01:08;5.22;;;2.30;;
30543;SDS011;43388;46.308;4.600;2023-05-10T00:03:35;4.72;;;2.28;;
30543;SDS011;43388;46.308;4.600;2023-05-10T00:06:01;3.47;;;2.20;;
30543;SDS011;43388;46.308;4.600;2023-05-10T00:08:27;4.05;;;2.03;;
30543;SDS011;43388;46.308;4.600;2023-05-10T00:10:53;1.98;;;1.88;;
30543;SDS011;43388;46.308;4.600;2023-05-10T00:13:19;2.72;;;1.80;;
30543;SDS011;43388;46.308;4.600;2023-05-10T00:15:45;4.70;;;1.88;;
30543;SDS011;43388;46.308;4.600;2023-05-10T00:18:11;2.90;;;1.80;;
30543;SDS011;43388;46.308;4.600;2023-05-10T00:20:37;2.40;;;1.90;;
30543;SDS011;43388;46.308;4.600;2023-05-10T00:23:03;3.10;;;2.00;;
30543;SDS011;43388;46.308;4.600;2023-05-10T00:25:29;2.13;;;1.98;;
30543;SDS011;43388;46.308;4.600;2023-05-10T00:27:55;3.72;;;2.08;;
30543;SDS011;43388;46.308;4.600;2023-05-10T00:30:22;5.05;;;2.00;;
30543;SDS011;43388;46.308;4.600;2023-05-10T00:32:48;3.47;;;2.30;;
30543;SDS011;43388;46.308;4.600;2023-05-10T00:35:15;7.13;;;2.80;;
30543;SDS011;43388;46.308;4.600;2023-05-10T00:37:41;4.13;;;2.83;;
30543;SDS011;43388;46.308;4.600;2023-05-10T00:40:07;4.78;;;2.08;;
30543;SDS011;43388;46.308;4.600;2023-05-10T00:42:33;3.88;;;2.67;;
30543;SDS011;43388;46.308;4.600;2023-05-10T00:44:59;8.45;;;2.83;;
30543;SDS011;43388;46.308;4.600;2023-05-10T00:47:25;9.07;;;2.95;;
30543;SDS011;43388;46.308;4.600;2023-05-10T00:49:51;9.73;;;3.00;;
30543;SDS011;43388;46.308;4.600;2023-05-10T00:52:17;8.32;;;2.92;;
30543;SDS011;43388;46.308;4.600;2023-05-10T00:54:43;8.43;;;2.60;;
30543;SDS011;43388;46.308;4.600;2023-05-10T00:57:10;8.60;;;4.05;;
30543;SDS011;43388;46.308;4.600;2023-05-10T00:59:36;7.40;;;2.65;;
30543;SDS011;43388;46.308;4.600;2023-05-10T01:02:02;5.57;;;2.35;;
30543;SDS011;43388;46.308;4.600;2023-05-10T01:04:28;5.20;;;2.75;;
30543;SDS011;43388;46.308;4.600;2023-05-10T01:06:55;5.38;;;2.55;;
30543;SDS011;43388;46.308;4.600;2023-05-10T01:09:22;4.72;;;2.58;;
30543;SDS011;43388;46.308;4.600;2023-05-10T01:11:48;3.92;;;2.65;;
30543;SDS011;43388;46.308;4.600;2023-05-10T01:14:14;6.55;;;2.58;;
30543;SDS011;43388;46.308;4.600;2023-05-10T01:16:41;4.35;;;2.40;;
30543;SDS011;43388;46.308;4.600;2023-05-10T01:19:29;5.53;;;4.13;;
30543;SDS011;43388;46.308;4.600;2023-05-10T01:27:17;7.70;;;2.92;;
30543;SDS011;43388;46.308;4.600;2023-05-10T01:34:54;4.30;;;2.72;;
30543;SDS011;43388;46.308;4.600;2023-05-10T01:37:29;5.72;;;2.42;;
30543;SDS011;43388;46.308;4.600;2023-05-10T01:40:12;6.28;;;2.58;;
30543;SDS011;43388;46.308;4.600;2023-05-10T01:42:40;4.15;;;2.60;;
30543;SDS011;43388;46.308;4.600;2023-05-10T01:47:42;4.63;;;3.42;;
30543;SDS011;43388;46.308;4.600;2023-05-10T01:50:10;6.75;;;2.67;;
30543;SDS011;43388;46.308;4.600;2023-05-10T01:52:42;7.25;;;3.03;;
30543;SDS011;43388;46.308;4.600;2023-05-10T01:55:14;24.58;;;3.63;;
30543;SDS011;43388;46.308;4.600;2023-05-10T01:57:42;9.85;;;3.70;;
30543;SDS011;43388;46.308;4.600;2023-05-10T02:00:09;6.88;;;3.17;;
30543;SDS011;43388;46.308;4.600;2023-05-10T02:02:37;11.77;;;3.50;;
30543;SDS011;43388;46.308;4.600;2023-05-10T02:05:05;10.02;;;3.08;;
30543;SDS011;43388;46.308;4.600;2023-05-10T02:07:32;6.57;;;3.35;;
30543;SDS011;43388;46.308;4.600;2023-05-10T02:10:00;8.43;;;3.22;;
30543;SDS011;43388;46.308;4.600;2023-05-10T02:12:27;4.85;;;2.90;;
30543;SDS011;43388;46.308;4.600;2023-05-10T02:14:54;7.40;;;3.03;;
30543;SDS011;43388;46.308;4.600;2023-05-10T02:17:20;5.05;;;3.22;;
30543;SDS011;43388;46.308;4.600;2023-05-10T02:19:47;8.30;;;3.53;;
30543;SDS011;43388;46.308;4.600;2023-05-10T02:22:13;10.23;;;3.25;;
30543;SDS011;43388;46.308;4.600;2023-05-10T02:24:41;8.65;;;2.70;;
30543;SDS011;43388;46.308;4.600;2023-05-10T02:27:07;7.07;;;3.60;;
30543;SDS011;43388;46.308;4.600;2023-05-10T02:29:34;9.80;;;3.90;;
30543;SDS011;43388;46.308;4.600;2023-05-10T02:32:01;19.13;;;3.90;;
30543;SDS011;43388;46.308;4.600;2023-05-10T02:34:28;7.90;;;2.97;;
30543;SDS011;43388;46.308;4.600;2023-05-10T02:36:54;11.13;;;3.25;;
30543;SDS011;43388;46.308;4.600;2023-05-10T02:39:21;10.10;;;3.53;;
30543;SDS011;43388;46.308;4.600;2023-05-10T02:41:48;13.18;;;3.67;;
30543;SDS011;43388;46.308;4.600;2023-05-10T02:44:15;9.13;;;3.20;;
30543;SDS011;43388;46.308;4.600;2023-05-10T02:46:41;6.53;;;3.50;;
30543;SDS011;43388;46.308;4.600;2023-05-10T02:49:08;9.95;;;3.67;;
30543;SDS011;43388;46.308;4.600;2023-05-10T02:51:34;14.32;;;5.20;;
30543;SDS011;43388;46.308;4.600;2023-05-10T02:54:04;9.65;;;3.60;;
30543;SDS011;43388;46.308;4.600;2023-05-10T02:56:33;7.25;;;3.30;;
30543;SDS011;43388;46.308;4.600;2023-05-10T02:59:00;11.70;;;3.80;;
30543;SDS011;43388;46.308;4.600;2023-05-10T03:01:26;8.40;;;3.85;;
30543;SDS011;43388;46.308;4.600;2023-05-10T03:03:52;9.02;;;4.10;;
30543;SDS011;43388;46.308;4.600;2023-05-10T03:06:18;12.18;;;3.55;;
30543;SDS011;43388;46.308;4.600;2023-05-10T03:08:44;12.35;;;3.47;;
30543;SDS011;43388;46.308;4.600;2023-05-10T03:13:54;12.55;;;3.90;;
30543;SDS011;43388;46.308;4.600;2023-05-10T03:16:24;10.65;;;4.10;;
30543;SDS011;43388;46.308;4.600;2023-05-10T03:18:54;15.43;;;3.83;;
30543;SDS011;43388;46.308;4.600;2023-05-10T03:21:22;10.35;;;3.67;;
30543;SDS011;43388;46.308;4.600;2023-05-10T03:23:54;8.55;;;3.70;;
30543;SDS011;43388;46.308;4.600;2023-05-10T03:26:26;9.30;;;3.45;;
30543;SDS011;43388;46.308;4.600;2023-05-10T03:28:52;8.82;;;4.13;;
30543;SDS011;43388;46.308;4.600;2023-05-10T03:31:19;9.35;;;3.45;;
30543;SDS011;43388;46.308;4.600;2023-05-10T03:33:45;11.68;;;4.10;;
30543;SDS011;43388;46.308;4.600;2023-05-10T03:36:12;11.95;;;4.15;;
30543;SDS011;43388;46.308;4.600;2023-05-10T03:38:38;6.18;;;3.28;;
30543;SDS011;43388;46.308;4.600;2023-05-10T03:41:04;16.83;;;4.63;;
30543;SDS011;43388;46.308;4.600;2023-05-10T03:43:30;10.38;;;3.97;;
30543;SDS011;43388;46.308;4.600;2023-05-10T03:45:56;7.72;;;3.83;;
30543;SDS011;43388;46.308;4.600;2023-05-10T03:48:22;11.00;;;4.45;;
30543;SDS011;43388;46.308;4.600;2023-05-10T03:50:48;15.80;;;5.15;;
30543;SDS011;43388;46.308;4.600;2023-05-10T03:53:15;10.40;;;4.22;;
30543;SDS011;43388;46.308;4.600;2023-05-10T03:55:41;10.55;;;4.00;;
30543;SDS011;43388;46.308;4.600;2023-05-10T03:58:07;15.88;;;4.85;;
30543;SDS011;43388;46.308;4.600;2023-05-10T04:00:36;12.25;;;4.15;;
30543;SDS011;43388;46.308;4.600;2023-05-10T04:03:02;12.90;;;4.03;;
30543;SDS011;43388;46.308;4.600;2023-05-10T04:05:28;16.38;;;5.18;;
30543;SDS011;43388;46.308;4.600;2023-05-10T04:07:54;12.55;;;4.10;;
30543;SDS011;43388;46.308;4.600;2023-05-10T04:10:20;10.25;;;3.80;;
30543;SDS011;43388;46.308;4.600;2023-05-10T04:12:47;12.38;;;4.07;;
30543;SDS011;43388;46.308;4.600;2023-05-10T04:15:13;8.88;;;3.50;;
30543;SDS011;43388;46.308;4.600;2023-05-10T04:17:39;10.23;;;3.85;;
30543;SDS011;43388;46.308;4.600;2023-05-10T04:20:05;19.75;;;5.07;;
30543;SDS011;43388;46.308;4.600;2023-05-10T04:22:31;11.23;;;4.13;;
30543;SDS011;43388;46.308;4.600;2023-05-10T04:24:57;9.55;;;4.30;;
30543;SDS011;43388;46.308;4.600;2023-05-10T04:27:23;17.98;;;4.75;;
30543;SDS011;43388;46.308;4.600;2023-05-10T04:29:49;9.45;;;4.22;;
30543;SDS011;43388;46.308;4.600;2023-05-10T04:32:16;8.80;;;4.03;;
30543;SDS011;43388;46.308;4.600;2023-05-10T04:34:42;14.43;;;5.10;;
30543;SDS011;43388;46.308;4.600;2023-05-10T04:37:08;9.80;;;3.80;;
30543;SDS011;43388;46.308;4.600;2023-05-10T04:39:34;13.63;;;3.95;;
30543;SDS011;43388;46.308;4.600;2023-05-10T04:42:01;13.60;;;3.75;;
30543;SDS011;43388;46.308;4.600;2023-05-10T04:44:28;9.23;;;3.85;;
30543;SDS011;43388;46.308;4.600;2023-05-10T04:46:54;14.15;;;3.90;;
30543;SDS011;43388;46.308;4.600;2023-05-10T04:49:20;11.55;;;4.28;;
30543;SDS011;43388;46.308;4.600;2023-05-10T04:51:46;11.57;;;4.65;;
30543;SDS011;43388;46.308;4.600;2023-05-10T04:54:12;13.55;;;4.00;;
30543;SDS011;43388;46.308;4.600;2023-05-10T04:56:38;16.65;;;4.47;;
30543;SDS011;43388;46.308;4.600;2023-05-10T04:59:05;11.07;;;3.80;;
30543;SDS011;43388;46.308;4.600;2023-05-10T05:01:31;6.30;;;3.55;;
30543;SDS011;43388;46.308;4.600;2023-05-10T05:03:58;16.23;;;4.70;;
30543;SDS011;43388;46.308;4.600;2023-05-10T05:06:24;13.00;;;4.22;;
30543;SDS011;43388;46.308;4.600;2023-05-10T05:08:52;9.95;;;4.10;;
30543;SDS011;43388;46.308;4.600;2023-05-10T05:11:18;8.90;;;3.58;;
30543;SDS011;43388;46.308;4.600;2023-05-10T05:13:44;13.15;;;4.53;;
30543;SDS011;43388;46.308;4.600;2023-05-10T05:16:10;11.38;;;4.00;;
30543;SDS011;43388;46.308;4.600;2023-05-10T05:18:36;10.75;;;3.60;;
30543;SDS011;43388;46.308;4.600;2023-05-10T05:21:02;10.93;;;3.95;;
30543;SDS011;43388;46.308;4.600;2023-05-10T05:23:28;9.90;;;3.97;;
30543;SDS011;43388;46.308;4.600;2023-05-10T05:25:55;8.43;;;3.90;;
30543;SDS011;43388;46.308;4.600;2023-05-10T05:28:21;9.50;;;4.15;;
30543;SDS011;43388;46.308;4.600;2023-05-10T05:30:47;13.52;;;3.63;;
30543;SDS011;43388;46.308;4.600;2023-05-10T05:33:13;7.75;;;3.42;;
30543;SDS011;43388;46.308;4.600;2023-05-10T05:35:43;12.77;;;4.00;;
30543;SDS011;43388;46.308;4.600;2023-05-10T05:38:15;12.05;;;3.88;;
30543;SDS011;43388;46.308;4.600;2023-05-10T05:40:42;13.90;;;4.35;;
30543;SDS011;43388;46.308;4.600;2023-05-10T05:43:08;12.43;;;4.60;;
30543;SDS011;43388;46.308;4.600;2023-05-10T05:45:34;15.02;;;3.75;;
30543;SDS011;43388;46.308;4.600;2023-05-10T05:48:00;8.15;;;3.47;;
30543;SDS011;43388;46.308;4.600;2023-05-10T05:50:26;12.60;;;4.15;;
30543;SDS011;43388;46.308;4.600;2023-05-10T05:52:52;10.70;;;4.10;;
30543;SDS011;43388;46.308;4.600;2023-05-10T05:55:18;8.93;;;3.88;;
30543;SDS011;43388;46.308;4.600;2023-05-10T05:57:44;8.20;;;3.30;;
30543;SDS011;43388;46.308;4.600;2023-05-10T06:00:10;9.75;;;5.38;;
30543;SDS011;43388;46.308;4.600;2023-05-10T06:02:36;17.75;;;4.07;;
30543;SDS011;43388;46.308;4.600;2023-05-10T06:05:02;15.48;;;4.72;;
30543;SDS011;43388;46.308;4.600;2023-05-10T06:07:28;13.98;;;4.50;;
30543;SDS011;43388;46.308;4.600;2023-05-10T06:09:54;12.13;;;4.00;;
30543;SDS011;43388;46.308;4.600;2023-05-10T06:12:20;11.27;;;4.00;;
30543;SDS011;43388;46.308;4.600;2023-05-10T06:14:46;16.15;;;4.07;;
30543;SDS011;43388;46.308;4.600;2023-05-10T06:17:12;17.35;;;4.32;;
30543;SDS011;43388;46.308;4.600;2023-05-10T06:19:38;15.32;;;4.15;;
30543;SDS011;43388;46.308;4.600;2023-05-10T06:22:04;9.95;;;3.78;;
30543;SDS011;43388;46.308;4.600;2023-05-10T06:24:30;11.48;;;4.00;;
30543;SDS011;43388;46.308;4.600;2023-05-10T06:26:56;6.15;;;3.83;;
30543;SDS011;43388;46.308;4.600;2023-05-10T06:29:25;12.20;;;3.83;;
30543;SDS011;43388;46.308;4.600;2023-05-10T06:31:51;11.57;;;3.53;;
30543;SDS011;43388;46.308;4.600;2023-05-10T06:34:17;10.35;;;4.10;;
30543;SDS011;43388;46.308;4.600;2023-05-10T06:36:43;14.82;;;3.83;;
30543;SDS011;43388;46.308;4.600;2023-05-10T06:39:09;10.20;;;3.33;;
30543;SDS011;43388;46.308;4.600;2023-05-10T06:41:37;14.00;;;4.07;;
30543;SDS011;43388;46.308;4.600;2023-05-10T06:44:03;14.82;;;4.15;;
30543;SDS011;43388;46.308;4.600;2023-05-10T06:46:30;10.43;;;4.07;;
30543;SDS011;43388;46.308;4.600;2023-05-10T06:48:56;11.38;;;3.50;;
30543;SDS011;43388;46.308;4.600;2023-05-10T06:51:22;12.63;;;4.90;;
30543;SDS011;43388;46.308;4.600;2023-05-10T06:53:48;10.23;;;4.13;;
30543;SDS011;43388;46.308;4.600;2023-05-10T06:56:14;10.20;;;3.97;;
30543;SDS011;43388;46.308;4.600;2023-05-10T06:58:40;12.60;;;4.25;;
30543;SDS011;43388;46.308;4.600;2023-05-10T07:01:06;8.88;;;3.25;;
30543;SDS011;43388;46.308;4.600;2023-05-10T07:03:32;10.48;;;3.67;;
30543;SDS011;43388;46.308;4.600;2023-05-10T07:06:01;11.27;;;3.83;;
30543;SDS011;43388;46.308;4.600;2023-05-10T07:08:32;8.90;;;3.05;;
30543;SDS011;43388;46.308;4.600;2023-05-10T07:11:02;10.98;;;3.67;;
30543;SDS011;43388;46.308;4.600;2023-05-10T07:13:28;7.88;;;3.13;;
30543;SDS011;43388;46.308;4.600;2023-05-10T07:15:55;11.18;;;3.63;;
30543;SDS011;43388;46.308;4.600;2023-05-10T07:18:21;12.82;;;3.63;;
30543;SDS011;43388;46.308;4.600;2023-05-10T07:20:47;14.25;;;4.15;;
30543;SDS011;43388;46.308;4.600;2023-05-10T07:23:13;11.27;;;4.28;;
30543;SDS011;43388;46.308;4.600;2023-05-10T07:25:39;11.30;;;3.60;;
30543;SDS011;43388;46.308;4.600;2023-05-10T07:28:05;9.32;;;3.50;;
30543;SDS011;43388;46.308;4.600;2023-05-10T07:30:31;12.13;;;4.47;;
30543;SDS011;43388;46.308;4.600;2023-05-10T07:32:57;13.52;;;4.28;;
30543;SDS011;43388;46.308;4.600;2023-05-10T07:35:24;11.55;;;3.63;;
30543;SDS011;43388;46.308;4.600;2023-05-10T07:37:50;12.63;;;3.60;;
30543;SDS011;43388;46.308;4.600;2023-05-10T07:40:16;9.73;;;3.28;;
30543;SDS011;43388;46.308;4.600;2023-05-10T07:42:42;14.20;;;3.42;;
30543;SDS011;43388;46.308;4.600;2023-05-10T07:45:08;8.98;;;3.97;;
30543;SDS011;43388;46.308;4.600;2023-05-10T07:47:34;7.47;;;2.92;;
30543;SDS011;43388;46.308;4.600;2023-05-10T07:50:00;16.00;;;3.80;;
30543;SDS011;43388;46.308;4.600;2023-05-10T07:52:26;13.55;;;4.05;;
30543;SDS011;43388;46.308;4.600;2023-05-10T07:54:52;9.48;;;4.43;;
30543;SDS011;43388;46.308;4.600;2023-05-10T07:57:18;11.27;;;4.15;;
30543;SDS011;43388;46.308;4.600;2023-05-10T07:59:44;8.40;;;3.00;;
30543;SDS011;43388;46.308;4.600;2023-05-10T08:02:10;11.63;;;3.38;;
30543;SDS011;43388;46.308;4.600;2023-05-10T08:04:36;10.13;;;3.92;;
30543;SDS011;43388;46.308;4.600;2023-05-10T08:07:02;13.02;;;4.10;;
30543;SDS011;43388;46.308;4.600;2023-05-10T08:09:28;9.40;;;3.65;;
30543;SDS011;43388;46.308;4.600;2023-05-10T08:11:54;6.72;;;3.15;;
30543;SDS011;43388;46.308;4.600;2023-05-10T08:14:20;7.57;;;3.63;;
30543;SDS011;43388;46.308;4.600;2023-05-10T08:16:46;11.15;;;3.50;;
30543;SDS011;43388;46.308;4.600;2023-05-10T08:19:12;8.95;;;3.42;;
30543;SDS011;43388;46.308;4.600;2023-05-10T08:21:38;7.60;;;3.00;;
30543;SDS011;43388;46.308;4.600;2023-05-10T08:24:07;15.50;;;3.97;;
30543;SDS011;43388;46.308;4.600;2023-05-10T08:26:33;14.68;;;3.40;;
30543;SDS011;43388;46.308;4.600;2023-05-10T08:28:59;10.52;;;3.53;;
30543;SDS011;43388;46.308;4.600;2023-05-10T08:31:25;9.40;;;3.50;;
30543;SDS011;43388;46.308;4.600;2023-05-10T08:33:51;9.88;;;3.55;;
30543;SDS011;43388;46.308;4.600;2023-05-10T08:36:17;9.82;;;3.53;;
30543;SDS011;43388;46.308;4.600;2023-05-10T08:38:46;14.90;;;3.85;;
30543;SDS011;43388;46.308;4.600;2023-05-10T08:41:13;12.20;;;4.03;;
30543;SDS011;43388;46.308;4.600;2023-05-10T08:43:39;13.80;;;3.67;;
30543;SDS011;43388;46.308;4.600;2023-05-10T08:46:11;11.43;;;3.47;;
30543;SDS011;43388;46.308;4.600;2023-05-10T08:48:38;15.55;;;5.20;;
30543;SDS011;43388;46.308;4.600;2023-05-10T08:51:04;9.45;;;3.25;;
30543;SDS011;43388;46.308;4.600;2023-05-10T08:53:31;13.13;;;4.35;;
30543;SDS011;43388;46.308;4.600;2023-05-10T08:55:58;11.07;;;3.67;;
30543;SDS011;43388;46.308;4.600;2023-05-10T08:58:24;5.78;;;3.00;;
30543;SDS011;43388;46.308;4.600;2023-05-10T09:00:51;9.65;;;3.45;;
30543;SDS011;43388;46.308;4.600;2023-05-10T09:03:17;9.25;;;3.30;;
30543;SDS011;43388;46.308;4.600;2023-05-10T09:05:43;9.93;;;4.05;;
30543;SDS011;43388;46.308;4.600;2023-05-10T09:08:10;7.45;;;2.80;;
30543;SDS011;43388;46.308;4.600;2023-05-10T09:10:37;7.03;;;3.13;;
30543;SDS011;43388;46.308;4.600;2023-05-10T09:13:04;10.18;;;3.13;;
30543;SDS011;43388;46.308;4.600;2023-05-10T09:15:30;8.18;;;3.67;;
30543;SDS011;43388;46.308;4.600;2023-05-10T09:17:56;6.97;;;3.20;;
30543;SDS011;43388;46.308;4.600;2023-05-10T09:20:24;5.95;;;2.90;;
30543;SDS011;43388;46.308;4.600;2023-05-10T09:22:50;8.55;;;3.20;;
30543;SDS011;43388;46.308;4.600;2023-05-10T09:25:16;10.00;;;3.15;;
30543;SDS011;43388;46.308;4.600;2023-05-10T09:27:46;12.90;;;4.00;;
30543;SDS011;43388;46.308;4.600;2023-05-10T09:30:16;11.18;;;3.75;;
30543;SDS011;43388;46.308;4.600;2023-05-10T09:32:43;7.30;;;2.97;;
30543;SDS011;43388;46.308;4.600;2023-05-10T09:35:13;7.57;;;2.78;;
30543;SDS011;43388;46.308;4.600;2023-05-10T09:37:40;8.70;;;3.42;;
30543;SDS011;43388;46.308;4.600;2023-05-10T09:40:07;7.10;;;3.03;;
30543;SDS011;43388;46.308;4.600;2023-05-10T09:42:34;10.05;;;4.10;;
30543;SDS011;43388;46.308;4.600;2023-05-10T09:45:02;8.65;;;3.88;;
30543;SDS011;43388;46.308;4.600;2023-05-10T09:47:28;8.15;;;4.30;;
30543;SDS011;43388;46.308;4.600;2023-05-10T09:49:55;9.73;;;3.33;;
30543;SDS011;43388;46.308;4.600;2023-05-10T09:52:28;5.45;;;2.70;;
30543;SDS011;43388;46.308;4.600;2023-05-10T09:54:55;11.52;;;3.00;;
30543;SDS011;43388;46.308;4.600;2023-05-10T09:57:21;10.43;;;3.28;;
30543;SDS011;43388;46.308;4.600;2023-05-10T09:59:47;10.98;;;3.85;;
30543;SDS011;43388;46.308;4.600;2023-05-10T10:02:14;6.90;;;2.58;;
30543;SDS011;43388;46.308;4.600;2023-05-10T10:04:41;8.32;;;2.72;;
30543;SDS011;43388;46.308;4.600;2023-05-10T10:07:07;8.95;;;3.00;;
30543;SDS011;43388;46.308;4.600;2023-05-10T10:09:33;8.57;;;2.95;;
30543;SDS011;43388;46.308;4.600;2023-05-10T10:12:00;7.13;;;2.72;;
30543;SDS011;43388;46.308;4.600;2023-05-10T10:14:27;12.82;;;3.72;;
30543;SDS011;43388;46.308;4.600;2023-05-10T10:16:53;12.55;;;3.63;;
30543;SDS011;43388;46.308;4.600;2023-05-10T10:19:19;13.15;;;3.90;;
30543;SDS011;43388;46.308;4.600;2023-05-10T10:21:46;11.75;;;3.28;;
30543;SDS011;43388;46.308;4.600;2023-05-10T10:24:12;17.75;;;4.20;;
30543;SDS011;43388;46.308;4.600;2023-05-10T10:26:38;9.35;;;2.83;;
30543;SDS011;43388;46.308;4.600;2023-05-10T10:29:23;9.65;;;3.75;;
30543;SDS011;43388;46.308;4.600;2023-05-10T10:34:21;13.18;;;3.38;;
30543;SDS011;43388;46.308;4.600;2023-05-10T10:36:51;13.57;;;3.25;;
30543;SDS011;43388;46.308;4.600;2023-05-10T10:39:17;10.15;;;3.15;;
30543;SDS011;43388;46.308;4.600;2023-05-10T10:41:49;6.10;;;3.00;;
30543;SDS011;43388;46.308;4.600;2023-05-10T10:49:16;9.35;;;2.97;;
30543;SDS011;43388;46.308;4.600;2023-05-10T10:52:12;8.85;;;3.38;;
30543;SDS011;43388;46.308;4.600;2023-05-10T10:54:28;12.15;;;3.10;;
30543;SDS011;43388;46.308;4.600;2023-05-10T11:07:51;12.00;;;2.93;;
30543;SDS011;43388;46.308;4.600;2023-05-10T11:10:20;6.47;;;2.88;;
30543;SDS011;43388;46.308;4.600;2023-05-10T11:15:19;9.77;;;3.05;;
30543;SDS011;43388;46.308;4.600;2023-05-10T11:17:47;6.03;;;2.88;;
30543;SDS011;43388;46.308;4.600;2023-05-10T11:20:16;10.27;;;3.40;;
30543;SDS011;43388;46.308;4.600;2023-05-10T11:22:53;9.90;;;3.10;;
30543;SDS011;43388;46.308;4.600;2023-05-10T11:25:22;6.20;;;2.80;;
30543;SDS011;43388;46.308;4.600;2023-05-10T11:27:52;6.95;;;3.08;;
30543;SDS011;43388;46.308;4.600;2023-05-10T11:30:18;6.65;;;3.10;;
30543;SDS011;43388;46.308;4.600;2023-05-10T11:32:44;9.43;;;3.17;;
30543;SDS011;43388;46.308;4.600;2023-05-10T11:35:10;9.73;;;3.78;;
30543;SDS011;43388;46.308;4.600;2023-05-10T11:37:38;6.90;;;2.83;;
30543;SDS011;43388;46.308;4.600;2023-05-10T11:40:08;6.72;;;2.97;;
30543;SDS011;43388;46.308;4.600;2023-05-10T11:42:37;6.03;;;2.55;;
30543;SDS011;43388;46.308;4.600;2023-05-10T11:45:04;9.73;;;3.08;;
30543;SDS011;43388;46.308;4.600;2023-05-10T11:47:30;11.32;;;2.97;;
30543;SDS011;43388;46.308;4.600;2023-05-10T11:49:56;9.32;;;3.33;;
30543;SDS011;43388;46.308;4.600;2023-05-10T11:52:23;9.32;;;3.03;;
30543;SDS011;43388;46.308;4.600;2023-05-10T11:54:55;9.82;;;3.28;;
30543;SDS011;43388;46.308;4.600;2023-05-10T11:57:26;4.95;;;2.95;;
30543;SDS011;43388;46.308;4.600;2023-05-10T11:59:53;5.22;;;3.20;;
30543;SDS011;43388;46.308;4.600;2023-05-10T12:02:20;9.75;;;3.00;;
30543;SDS011;43388;46.308;4.600;2023-05-10T12:04:46;3.67;;;2.70;;
30543;SDS011;43388;46.308;4.600;2023-05-10T12:07:12;11.73;;;3.40;;
30543;SDS011;43388;46.308;4.600;2023-05-10T12:09:44;7.25;;;2.85;;
30543;SDS011;43388;46.308;4.600;2023-05-10T12:12:34;9.85;;;3.10;;
30543;SDS011;43388;46.308;4.600;2023-05-10T12:15:01;7.15;;;3.15;;
30543;SDS011;43388;46.308;4.600;2023-05-10T12:17:28;10.32;;;3.00;;
30543;SDS011;43388;46.308;4.600;2023-05-10T12:19:58;8.85;;;3.00;;
30543;SDS011;43388;46.308;4.600;2023-05-10T12:22:25;8.35;;;3.00;;
30543;SDS011;43388;46.308;4.600;2023-05-10T12:24:51;7.05;;;3.40;;
30543;SDS011;43388;46.308;4.600;2023-05-10T12:27:17;15.48;;;3.55;;
30543;SDS011;43388;46.308;4.600;2023-05-10T12:29:43;4.47;;;2.70;;
30543;SDS011;43388;46.308;4.600;2023-05-10T12:32:09;6.85;;;2.67;;
30543;SDS011;43388;46.308;4.600;2023-05-10T12:34:35;8.68;;;3.33;;
30543;SDS011;43388;46.308;4.600;2023-05-10T12:37:03;9.32;;;3.25;;
30543;SDS011;43388;46.308;4.600;2023-05-10T12:39:43;14.57;;;3.30;;
30543;SDS011;43388;46.308;4.600;2023-05-10T12:42:09;8.25;;;3.22;;
30543;SDS011;43388;46.308;4.600;2023-05-10T12:44:36;9.63;;;2.80;;
30543;SDS011;43388;46.308;4.600;2023-05-10T12:47:02;8.50;;;3.45;;
30543;SDS011;43388;46.308;4.600;2023-05-10T12:49:28;9.52;;;3.28;;
30543;SDS011;43388;46.308;4.600;2023-05-10T12:51:54;7.35;;;2.60;;
30543;SDS011;43388;46.308;4.600;2023-05-10T12:54:20;5.07;;;2.40;;
30543;SDS011;43388;46.308;4.600;2023-05-10T12:56:46;11.45;;;3.35;;
30543;SDS011;43388;46.308;4.600;2023-05-10T12:59:12;6.32;;;2.47;;
30543;SDS011;43388;46.308;4.600;2023-05-10T13:01:38;16.80;;;3.20;;
30543;SDS011;43388;46.308;4.600;2023-05-10T13:04:04;7.65;;;3.00;;
30543;SDS011;43388;46.308;4.600;2023-05-10T13:06:30;8.68;;;2.70;;
30543;SDS011;43388;46.308;4.600;2023-05-10T13:08:56;6.93;;;2.75;;
30543;SDS011;43388;46.308;4.600;2023-05-10T13:11:22;6.22;;;2.75;;
30543;SDS011;43388;46.308;4.600;2023-05-10T13:13:48;7.00;;;2.80;;
30543;SDS011;43388;46.308;4.600;2023-05-10T13:16:16;7.43;;;2.60;;
30543;SDS011;43388;46.308;4.600;2023-05-10T13:18:42;7.68;;;2.70;;
30543;SDS011;43388;46.308;4.600;2023-05-10T13:21:08;6.13;;;2.33;;
30543;SDS011;43388;46.308;4.600;2023-05-10T13:23:34;8.38;;;3.00;;
30543;SDS011;43388;46.308;4.600;2023-05-10T13:26:00;9.90;;;3.10;;
30543;SDS011;43388;46.308;4.600;2023-05-10T13:28:26;8.20;;;3.08;;
30543;SDS011;43388;46.308;4.600;2023-05-10T13:30:52;4.05;;;2.30;;
30543;SDS011;43388;46.308;4.600;2023-05-10T13:33:18;7.57;;;2.40;;
30543;SDS011;43388;46.308;4.600;2023-05-10T13:35:44;10.02;;;3.22;;
30543;SDS011;43388;46.308;4.600;2023-05-10T13:38:11;7.22;;;2.70;;
30543;SDS011;43388;46.308;4.600;2023-05-10T13:40:37;8.93;;;3.00;;
30543;SDS011;43388;46.308;4.600;2023-05-10T13:43:03;8.70;;;2.65;;
30543;SDS011;43388;46.308;4.600;2023-05-10T13:45:29;5.28;;;2.65;;
30543;SDS011;43388;46.308;4.600;2023-05-10T13:47:55;7.15;;;2.67;;
30543;SDS011;43388;46.308;4.600;2023-05-10T13:50:22;6.40;;;2.35;;
30543;SDS011;43388;46.308;4.600;2023-05-10T13:52:48;6.97;;;2.40;;
30543;SDS011;43388;46.308;4.600;2023-05-10T13:55:14;10.05;;;2.72;;
30543;SDS011;43388;46.308;4.600;2023-05-10T13:57:40;5.15;;;2.40;;
30543;SDS011;43388;46.308;4.600;2023-05-10T14:00:07;6.82;;;2.50;;
30543;SDS011;43388;46.308;4.600;2023-05-10T14:02:34;5.53;;;2.08;;
30543;SDS011;43388;46.308;4.600;2023-05-10T14:05:00;6.38;;;2.58;;
30543;SDS011;43388;46.308;4.600;2023-05-10T14:07:26;7.32;;;2.40;;
30543;SDS011;43388;46.308;4.600;2023-05-10T14:09:52;3.40;;;2.30;;
30543;SDS011;43388;46.308;4.600;2023-05-10T14:12:18;8.77;;;2.88;;
30543;SDS011;43388;46.308;4.600;2023-05-10T14:14:44;10.02;;;3.20;;
30543;SDS011;43388;46.308;4.600;2023-05-10T14:17:10;7.38;;;2.80;;
30543;SDS011;43388;46.308;4.600;2023-05-10T14:19:36;9.27;;;2.60;;
30543;SDS011;43388;46.308;4.600;2023-05-10T14:22:03;7.95;;;3.15;;
30543;SDS011;43388;46.308;4.600;2023-05-10T14:24:29;5.60;;;2.25;;
30543;SDS011;43388;46.308;4.600;2023-05-10T14:26:55;8.15;;;2.28;;
30543;SDS011;43388;46.308;4.600;2023-05-10T14:29:21;6.53;;;2.22;;
30543;SDS011;43388;46.308;4.600;2023-05-10T14:31:48;9.48;;;2.67;;
30543;SDS011;43388;46.308;4.600;2023-05-10T14:34:14;7.72;;;2.50;;
30543;SDS011;43388;46.308;4.600;2023-05-10T14:36:40;7.18;;;2.72;;
30543;SDS011;43388;46.308;4.600;2023-05-10T14:39:06;5.93;;;2.60;;
30543;SDS011;43388;46.308;4.600;2023-05-10T14:41:32;6.95;;;2.15;;
30543;SDS011;43388;46.308;4.600;2023-05-10T14:43:59;7.30;;;3.22;;
30543;SDS011;43388;46.308;4.600;2023-05-10T14:46:25;7.88;;;2.67;;
30543;SDS011;43388;46.308;4.600;2023-05-10T14:48:51;6.35;;;2.50;;
30543;SDS011;43388;46.308;4.600;2023-05-10T14:51:17;10.88;;;2.50;;
30543;SDS011;43388;46.308;4.600;2023-05-10T14:53:46;7.70;;;2.28;;
30543;SDS011;43388;46.308;4.600;2023-05-10T14:56:12;7.93;;;3.03;;
30543;SDS011;43388;46.308;4.600;2023-05-10T14:58:38;10.10;;;2.60;;
30543;SDS011;43388;46.308;4.600;2023-05-10T15:01:04;6.68;;;2.20;;
30543;SDS011;43388;46.308;4.600;2023-05-10T15:03:30;6.32;;;2.65;;
30543;SDS011;43388;46.308;4.600;2023-05-10T15:05:56;4.85;;;2.33;;
30543;SDS011;43388;46.308;4.600;2023-05-10T15:08:23;5.43;;;2.58;;
30543;SDS011;43388;46.308;4.600;2023-05-10T15:10:49;9.48;;;2.83;;
30543;SDS011;43388;46.308;4.600;2023-05-10T15:13:15;7.30;;;1.90;;
30543;SDS011;43388;46.308;4.600;2023-05-10T15:15:41;7.07;;;2.47;;
30543;SDS011;43388;46.308;4.600;2023-05-10T15:18:11;6.40;;;2.50;;